sensor_id;sensor_type;location;lat;lon;timestamp;P1;durP1;ratioP1;P2;durP2;ratioP2
16101;SDS011;56411;52.964;10.540;2022-09-09T00:00:17;42.53;;;23.23;;
16101;SDS011;56411;52.964;10.540;2022-09-09T00:02:46;42.35;;;21.98;;
16101;SDS011;56411;52.964;10.540;2022-09-09T00:05:23;43.75;;;22.48;;
16101;SDS011;56411;52.964;10.540;2022-09-09T00:07:57;45.88;;;22.33;;
16101;SDS011;56411;52.964;10.540;2022-09-09T00:10:31;45.20;;;22.88;;
16101;SDS011;56411;52.964;10.540;2022-09-09T00:13:02;46.88;;;23.10;;
16101;SDS011;56411;52.964;10.540;2022-09-09T00:15:37;47.00;;;23.02;;
16101;SDS011;56411;52.964;10.540;2022-09-09T00:18:12;53.37;;;24.83;;
16101;SDS011;56411;52.964;10.540;2022-09-09T00:20:49;54.63;;;25.90;;
16101;SDS011;56411;52.964;10.540;2022-09-09T00:23:23;53.50;;;26.40;;
16101;SDS011;56411;52.964;10.540;2022-09-09T00:25:56;50.33;;;24.30;;
16101;SDS011;56411;52.964;10.540;2022-09-09T00:28:31;53.40;;;25.23;;
16101;SDS011;56411;52.964;10.540;2022-09-09T00:31:08;55.07;;;25.50;;
16101;SDS011;56411;52.964;10.540;2022-09-09T00:33:39;51.67;;;25.65;;
16101;SDS011;56411;52.964;10.540;2022-09-09T00:36:09;55.10;;;25.10;;
16101;SDS011;56411;52.964;10.540;2022-09-09T00:38:41;56.77;;;27.10;;
16101;SDS011;56411;52.964;10.540;2022-09-09T00:41:14;54.30;;;26.33;;
16101;SDS011;56411;52.964;10.540;2022-09-09T00:43:46;56.90;;;26.70;;
16101;SDS011;56411;52.964;10.540;2022-09-09T00:46:25;54.45;;;26.02;;
16101;SDS011;56411;52.964;10.540;2022-09-09T00:49:23;60.40;;;26.27;;
16101;SDS011;56411;52.964;10.540;2022-09-09T00:51:59;75.47;;;26.90;;
16101;SDS011;56411;52.964;10.540;2022-09-09T00:54:39;99.13;;;25.52;;
16101;SDS011;56411;52.964;10.540;2022-09-09T00:57:23;112.35;;;25.48;;
16101;SDS011;56411;52.964;10.540;2022-09-09T00:59:56;117.20;;;23.88;;
16101;SDS011;56411;52.964;10.540;2022-09-09T01:02:44;119.88;;;25.13;;
16101;SDS011;56411;52.964;10.540;2022-09-09T01:05:33;53.73;;;21.43;;
16101;SDS011;56411;52.964;10.540;2022-09-09T01:08:11;69.03;;;22.02;;
16101;SDS011;56411;52.964;10.540;2022-09-09T01:10:47;58.90;;;22.90;;
16101;SDS011;56411;52.964;10.540;2022-09-09T01:13:22;54.90;;;23.37;;
16101;SDS011;56411;52.964;10.540;2022-09-09T01:15:51;51.25;;;23.10;;
16101;SDS011;56411;52.964;10.540;2022-09-09T01:18:20;47.83;;;22.53;;
16101;SDS011;56411;52.964;10.540;2022-09-09T01:20:54;52.08;;;22.95;;
16101;SDS011;56411;52.964;10.540;2022-09-09T01:23:35;52.92;;;24.27;;
16101;SDS011;56411;52.964;10.540;2022-09-09T01:26:17;58.30;;;25.40;;
16101;SDS011;56411;52.964;10.540;2022-09-09T01:28:49;56.28;;;25.17;;
16101;SDS011;56411;52.964;10.540;2022-09-09T01:31:19;59.95;;;27.00;;
16101;SDS011;56411;52.964;10.540;2022-09-09T01:33:48;57.42;;;25.23;;
16101;SDS011;56411;52.964;10.540;2022-09-09T01:36:18;54.47;;;25.57;;
16101;SDS011;56411;52.964;10.540;2022-09-09T01:38:52;57.07;;;25.93;;
16101;SDS011;56411;52.964;10.540;2022-09-09T01:41:20;51.00;;;24.55;;
16101;SDS011;56411;52.964;10.540;2022-09-09T01:43:47;47.95;;;23.77;;
16101;SDS011;56411;52.964;10.540;2022-09-09T01:46:16;47.67;;;23.23;;
16101;SDS011;56411;52.964;10.540;2022-09-09T01:48:44;48.70;;;24.10;;
16101;SDS011;56411;52.964;10.540;2022-09-09T01:51:11;49.65;;;23.77;;
16101;SDS011;56411;52.964;10.540;2022-09-09T01:53:38;52.22;;;24.55;;
16101;SDS011;56411;52.964;10.540;2022-09-09T01:56:10;53.07;;;25.57;;
16101;SDS011;56411;52.964;10.540;2022-09-09T01:58:47;49.22;;;23.25;;
16101;SDS011;56411;52.964;10.540;2022-09-09T02:01:28;45.90;;;22.95;;
16101;SDS011;56411;52.964;10.540;2022-09-09T02:04:06;44.53;;;21.83;;
16101;SDS011;56411;52.964;10.540;2022-09-09T02:06:41;42.40;;;21.47;;
16101;SDS011;56411;52.964;10.540;2022-09-09T02:09:10;46.65;;;21.85;;
16101;SDS011;56411;52.964;10.540;2022-09-09T02:11:43;45.73;;;22.10;;
16101;SDS011;56411;52.964;10.540;2022-09-09T02:14:16;44.30;;;21.27;;
16101;SDS011;56411;52.964;10.540;2022-09-09T02:16:49;45.17;;;20.90;;
16101;SDS011;56411;52.964;10.540;2022-09-09T02:19:21;43.50;;;22.58;;
16101;SDS011;56411;52.964;10.540;2022-09-09T02:21:52;43.28;;;21.23;;
16101;SDS011;56411;52.964;10.540;2022-09-09T02:24:21;45.50;;;21.00;;
16101;SDS011;56411;52.964;10.540;2022-09-09T02:26:49;39.85;;;22.00;;
16101;SDS011;56411;52.964;10.540;2022-09-09T02:29:22;50.92;;;29.63;;
16101;SDS011;56411;52.964;10.540;2022-09-09T02:31:52;47.00;;;25.77;;
16101;SDS011;56411;52.964;10.540;2022-09-09T02:34:22;39.70;;;20.50;;
16101;SDS011;56411;52.964;10.540;2022-09-09T02:36:53;37.65;;;20.05;;
16101;SDS011;56411;52.964;10.540;2022-09-09T02:39:21;40.58;;;20.52;;
16101;SDS011;56411;52.964;10.540;2022-09-09T02:41:48;40.63;;;21.40;;
16101;SDS011;56411;52.964;10.540;2022-09-09T02:44:15;41.23;;;21.40;;
16101;SDS011;56411;52.964;10.540;2022-09-09T02:46:49;48.00;;;24.63;;
16101;SDS011;56411;52.964;10.540;2022-09-09T02:49:28;40.70;;;22.00;;
16101;SDS011;56411;52.964;10.540;2022-09-09T02:52:06;44.90;;;24.95;;
16101;SDS011;56411;52.964;10.540;2022-09-09T02:54:37;46.03;;;23.90;;
16101;SDS011;56411;52.964;10.540;2022-09-09T02:57:06;41.70;;;21.17;;
16101;SDS011;56411;52.964;10.540;2022-09-09T02:59:37;39.00;;;20.60;;
16101;SDS011;56411;52.964;10.540;2022-09-09T03:02:05;35.30;;;19.40;;
16101;SDS011;56411;52.964;10.540;2022-09-09T03:04:32;36.87;;;19.53;;
16101;SDS011;56411;52.964;10.540;2022-09-09T03:06:59;31.77;;;18.20;;
16101;SDS011;56411;52.964;10.540;2022-09-09T03:09:28;33.50;;;18.03;;
16101;SDS011;56411;52.964;10.540;2022-09-09T03:11:55;31.93;;;17.80;;
16101;SDS011;56411;52.964;10.540;2022-09-09T03:14:22;31.93;;;16.97;;
16101;SDS011;56411;52.964;10.540;2022-09-09T03:16:50;31.67;;;16.45;;
16101;SDS011;56411;52.964;10.540;2022-09-09T03:19:19;29.90;;;16.20;;
16101;SDS011;56411;52.964;10.540;2022-09-09T03:21:46;31.67;;;17.30;;
16101;SDS011;56411;52.964;10.540;2022-09-09T03:24:14;28.50;;;15.60;;
16101;SDS011;56411;52.964;10.540;2022-09-09T03:26:42;29.47;;;16.33;;
16101;SDS011;56411;52.964;10.540;2022-09-09T03:29:10;28.83;;;14.35;;
16101;SDS011;56411;52.964;10.540;2022-09-09T03:31:38;24.40;;;13.23;;
16101;SDS011;56411;52.964;10.540;2022-09-09T03:34:05;23.20;;;13.77;;
16101;SDS011;56411;52.964;10.540;2022-09-09T03:36:34;25.17;;;13.03;;
16101;SDS011;56411;52.964;10.540;2022-09-09T03:39:01;23.33;;;12.67;;
16101;SDS011;56411;52.964;10.540;2022-09-09T03:41:29;28.77;;;14.73;;
16101;SDS011;56411;52.964;10.540;2022-09-09T03:43:56;28.07;;;15.50;;
16101;SDS011;56411;52.964;10.540;2022-09-09T03:46:24;29.00;;;15.33;;
16101;SDS011;56411;52.964;10.540;2022-09-09T03:48:52;26.73;;;14.47;;
16101;SDS011;56411;52.964;10.540;2022-09-09T03:51:19;23.90;;;13.10;;
16101;SDS011;56411;52.964;10.540;2022-09-09T03:53:48;23.60;;;13.43;;
16101;SDS011;56411;52.964;10.540;2022-09-09T03:56:15;26.47;;;13.70;;
16101;SDS011;56411;52.964;10.540;2022-09-09T03:58:42;23.87;;;13.23;;
16101;SDS011;56411;52.964;10.540;2022-09-09T04:01:10;22.07;;;13.00;;
16101;SDS011;56411;52.964;10.540;2022-09-09T04:03:42;22.70;;;12.20;;
16101;SDS011;56411;52.964;10.540;2022-09-09T04:06:11;20.20;;;11.80;;
16101;SDS011;56411;52.964;10.540;2022-09-09T04:08:39;20.20;;;11.77;;
16101;SDS011;56411;52.964;10.540;2022-09-09T04:11:08;21.53;;;11.80;;
16101;SDS011;56411;52.964;10.540;2022-09-09T04:13:35;21.93;;;11.87;;
16101;SDS011;56411;52.964;10.540;2022-09-09T04:16:04;22.53;;;11.53;;
16101;SDS011;56411;52.964;10.540;2022-09-09T04:18:31;22.13;;;12.13;;
16101;SDS011;56411;52.964;10.540;2022-09-09T04:20:59;21.20;;;12.10;;
16101;SDS011;56411;52.964;10.540;2022-09-09T04:23:26;20.43;;;12.10;;
16101;SDS011;56411;52.964;10.540;2022-09-09T04:25:54;23.60;;;12.33;;
16101;SDS011;56411;52.964;10.540;2022-09-09T04:28:24;20.47;;;11.13;;
16101;SDS011;56411;52.964;10.540;2022-09-09T04:30:53;21.60;;;11.80;;
16101;SDS011;56411;52.964;10.540;2022-09-09T04:33:20;20.53;;;11.53;;
16101;SDS011;56411;52.964;10.540;2022-09-09T04:35:47;20.60;;;11.40;;
16101;SDS011;56411;52.964;10.540;2022-09-09T04:38:15;21.27;;;11.80;;
16101;SDS011;56411;52.964;10.540;2022-09-09T04:40:43;18.37;;;10.37;;
16101;SDS011;56411;52.964;10.540;2022-09-09T04:43:12;18.85;;;10.63;;
16101;SDS011;56411;52.964;10.540;2022-09-09T04:45:41;18.23;;;10.33;;
16101;SDS011;56411;52.964;10.540;2022-09-09T04:48:08;20.70;;;9.73;;
16101;SDS011;56411;52.964;10.540;2022-09-09T04:50:35;18.27;;;9.88;;
16101;SDS011;56411;52.964;10.540;2022-09-09T04:53:02;18.53;;;10.07;;
16101;SDS011;56411;52.964;10.540;2022-09-09T04:55:31;21.13;;;10.00;;
16101;SDS011;56411;52.964;10.540;2022-09-09T04:57:58;20.93;;;9.77;;
16101;SDS011;56411;52.964;10.540;2022-09-09T05:00:29;18.13;;;9.20;;
16101;SDS011;56411;52.964;10.540;2022-09-09T05:02:58;18.23;;;9.37;;
16101;SDS011;56411;52.964;10.540;2022-09-09T05:05:29;17.13;;;9.47;;
16101;SDS011;56411;52.964;10.540;2022-09-09T05:08:00;20.48;;;9.27;;
16101;SDS011;56411;52.964;10.540;2022-09-09T05:10:27;17.67;;;9.10;;
16101;SDS011;56411;52.964;10.540;2022-09-09T05:12:54;17.60;;;8.77;;
16101;SDS011;56411;52.964;10.540;2022-09-09T05:15:21;14.75;;;8.60;;
16101;SDS011;56411;52.964;10.540;2022-09-09T05:17:48;14.93;;;8.07;;
16101;SDS011;56411;52.964;10.540;2022-09-09T05:20:18;16.63;;;8.70;;
16101;SDS011;56411;52.964;10.540;2022-09-09T05:22:46;15.68;;;8.32;;
16101;SDS011;56411;52.964;10.540;2022-09-09T05:25:13;17.60;;;8.37;;
16101;SDS011;56411;52.964;10.540;2022-09-09T05:27:41;15.53;;;8.07;;
16101;SDS011;56411;52.964;10.540;2022-09-09T05:30:08;16.00;;;7.70;;
16101;SDS011;56411;52.964;10.540;2022-09-09T05:32:35;14.63;;;7.83;;
16101;SDS011;56411;52.964;10.540;2022-09-09T05:35:02;16.13;;;7.90;;
16101;SDS011;56411;52.964;10.540;2022-09-09T05:37:31;14.50;;;7.10;;
16101;SDS011;56411;52.964;10.540;2022-09-09T05:39:58;13.90;;;7.87;;
16101;SDS011;56411;52.964;10.540;2022-09-09T05:42:29;13.83;;;7.30;;
16101;SDS011;56411;52.964;10.540;2022-09-09T05:44:56;16.40;;;7.33;;
16101;SDS011;56411;52.964;10.540;2022-09-09T05:47:23;15.27;;;7.33;;
16101;SDS011;56411;52.964;10.540;2022-09-09T05:49:52;14.70;;;7.03;;
16101;SDS011;56411;52.964;10.540;2022-09-09T05:52:20;16.10;;;7.25;;
16101;SDS011;56411;52.964;10.540;2022-09-09T05:54:49;15.77;;;7.00;;
16101;SDS011;56411;52.964;10.540;2022-09-09T05:57:15;14.53;;;7.10;;
16101;SDS011;56411;52.964;10.540;2022-09-09T05:59:44;15.52;;;6.75;;
16101;SDS011;56411;52.964;10.540;2022-09-09T06:02:11;16.13;;;7.10;;
16101;SDS011;56411;52.964;10.540;2022-09-09T06:04:38;13.68;;;7.20;;
16101;SDS011;56411;52.964;10.540;2022-09-09T06:07:05;15.27;;;6.73;;
16101;SDS011;56411;52.964;10.540;2022-09-09T06:09:32;14.88;;;6.93;;
16101;SDS011;56411;52.964;10.540;2022-09-09T06:12:00;14.20;;;6.90;;
16101;SDS011;56411;52.964;10.540;2022-09-09T06:14:27;13.43;;;6.50;;
16101;SDS011;56411;52.964;10.540;2022-09-09T06:16:54;14.50;;;6.78;;
16101;SDS011;56411;52.964;10.540;2022-09-09T06:19:21;17.60;;;6.57;;
16101;SDS011;56411;52.964;10.540;2022-09-09T06:21:51;12.52;;;6.70;;
16101;SDS011;56411;52.964;10.540;2022-09-09T06:24:18;14.50;;;6.50;;
16101;SDS011;56411;52.964;10.540;2022-09-09T06:26:46;13.88;;;6.85;;
16101;SDS011;56411;52.964;10.540;2022-09-09T06:29:14;15.38;;;6.32;;
16101;SDS011;56411;52.964;10.540;2022-09-09T06:31:41;14.55;;;6.18;;
16101;SDS011;56411;52.964;10.540;2022-09-09T06:34:08;14.50;;;6.45;;
16101;SDS011;56411;52.964;10.540;2022-09-09T06:36:35;14.50;;;6.10;;
16101;SDS011;56411;52.964;10.540;2022-09-09T06:39:03;15.05;;;6.68;;
16101;SDS011;56411;52.964;10.540;2022-09-09T06:41:31;13.00;;;6.00;;
16101;SDS011;56411;52.964;10.540;2022-09-09T06:43:59;13.50;;;5.90;;
16101;SDS011;56411;52.964;10.540;2022-09-09T06:46:27;13.57;;;5.75;;
16101;SDS011;56411;52.964;10.540;2022-09-09T06:48:56;14.65;;;5.78;;
16101;SDS011;56411;52.964;10.540;2022-09-09T06:51:26;11.55;;;5.88;;
16101;SDS011;56411;52.964;10.540;2022-09-09T06:53:55;12.80;;;5.47;;
16101;SDS011;56411;52.964;10.540;2022-09-09T06:56:25;11.20;;;5.40;;
16101;SDS011;56411;52.964;10.540;2022-09-09T06:58:53;13.70;;;5.35;;
16101;SDS011;56411;52.964;10.540;2022-09-09T07:01:22;14.10;;;5.90;;
16101;SDS011;56411;52.964;10.540;2022-09-09T07:03:52;13.68;;;5.68;;
16101;SDS011;56411;52.964;10.540;2022-09-09T07:06:20;13.75;;;5.22;;
16101;SDS011;56411;52.964;10.540;2022-09-09T07:08:50;13.27;;;5.90;;
16101;SDS011;56411;52.964;10.540;2022-09-09T07:11:17;12.65;;;5.68;;
16101;SDS011;56411;52.964;10.540;2022-09-09T07:13:45;11.93;;;5.47;;
16101;SDS011;56411;52.964;10.540;2022-09-09T07:16:12;12.02;;;4.90;;
16101;SDS011;56411;52.964;10.540;2022-09-09T07:18:41;10.43;;;5.05;;
16101;SDS011;56411;52.964;10.540;2022-09-09T07:21:10;12.82;;;5.10;;
16101;SDS011;56411;52.964;10.540;2022-09-09T07:23:38;11.93;;;5.03;;
16101;SDS011;56411;52.964;10.540;2022-09-09T07:26:07;12.48;;;4.85;;
16101;SDS011;56411;52.964;10.540;2022-09-09T07:28:35;11.77;;;4.72;;
16101;SDS011;56411;52.964;10.540;2022-09-09T07:31:03;10.27;;;5.03;;
16101;SDS011;56411;52.964;10.540;2022-09-09T07:33:31;11.63;;;5.43;;
16101;SDS011;56411;52.964;10.540;2022-09-09T07:36:03;9.15;;;4.10;;
16101;SDS011;56411;52.964;10.540;2022-09-09T07:38:36;12.57;;;5.07;;
16101;SDS011;56411;52.964;10.540;2022-09-09T07:41:05;9.80;;;4.38;;
16101;SDS011;56411;52.964;10.540;2022-09-09T07:43:33;8.48;;;3.80;;
16101;SDS011;56411;52.964;10.540;2022-09-09T07:46:00;9.25;;;4.00;;
16101;SDS011;56411;52.964;10.540;2022-09-09T07:48:28;9.45;;;3.20;;
16101;SDS011;56411;52.964;10.540;2022-09-09T07:51:05;8.35;;;3.60;;
16101;SDS011;56411;52.964;10.540;2022-09-09T07:53:35;8.85;;;3.53;;
16101;SDS011;56411;52.964;10.540;2022-09-09T07:56:04;9.68;;;3.70;;
16101;SDS011;56411;52.964;10.540;2022-09-09T07:58:32;9.50;;;3.60;;
16101;SDS011;56411;52.964;10.540;2022-09-09T08:00:59;7.10;;;3.40;;
16101;SDS011;56411;52.964;10.540;2022-09-09T08:03:26;9.75;;;4.00;;
16101;SDS011;56411;52.964;10.540;2022-09-09T08:05:53;8.15;;;3.85;;
16101;SDS011;56411;52.964;10.540;2022-09-09T08:08:27;8.80;;;3.90;;
16101;SDS011;56411;52.964;10.540;2022-09-09T08:11:02;7.43;;;3.58;;
16101;SDS011;56411;52.964;10.540;2022-09-09T08:13:30;9.68;;;3.60;;
16101;SDS011;56411;52.964;10.540;2022-09-09T08:16:03;8.20;;;3.42;;
16101;SDS011;56411;52.964;10.540;2022-09-09T08:18:31;10.50;;;3.78;;
16101;SDS011;56411;52.964;10.540;2022-09-09T08:21:04;7.20;;;3.22;;
16101;SDS011;56411;52.964;10.540;2022-09-09T08:23:31;6.55;;;3.13;;
16101;SDS011;56411;52.964;10.540;2022-09-09T08:26:04;8.52;;;3.50;;
16101;SDS011;56411;52.964;10.540;2022-09-09T08:28:32;8.50;;;3.58;;
16101;SDS011;56411;52.964;10.540;2022-09-09T08:31:04;9.32;;;3.70;;
16101;SDS011;56411;52.964;10.540;2022-09-09T08:33:32;6.60;;;3.20;;
16101;SDS011;56411;52.964;10.540;2022-09-09T08:36:01;10.73;;;3.35;;
16101;SDS011;56411;52.964;10.540;2022-09-09T08:38:28;9.82;;;3.67;;
16101;SDS011;56411;52.964;10.540;2022-09-09T08:40:56;9.75;;;3.45;;
16101;SDS011;56411;52.964;10.540;2022-09-09T08:43:44;8.43;;;3.88;;
16101;SDS011;56411;52.964;10.540;2022-09-09T08:46:14;8.18;;;3.83;;
16101;SDS011;56411;52.964;10.540;2022-09-09T08:48:48;11.73;;;4.13;;
16101;SDS011;56411;52.964;10.540;2022-09-09T08:51:23;11.57;;;4.55;;
16101;SDS011;56411;52.964;10.540;2022-09-09T08:53:53;10.32;;;3.70;;
16101;SDS011;56411;52.964;10.540;2022-09-09T08:56:23;9.23;;;3.75;;
16101;SDS011;56411;52.964;10.540;2022-09-09T08:58:53;10.38;;;3.47;;
16101;SDS011;56411;52.964;10.540;2022-09-09T09:01:29;8.07;;;3.47;;
16101;SDS011;56411;52.964;10.540;2022-09-09T09:04:21;10.27;;;3.70;;
16101;SDS011;56411;52.964;10.540;2022-09-09T09:07:03;6.72;;;2.80;;
16101;SDS011;56411;52.964;10.540;2022-09-09T09:09:42;7.88;;;3.13;;
16101;SDS011;56411;52.964;10.540;2022-09-09T09:12:24;8.00;;;2.90;;
16101;SDS011;56411;52.964;10.540;2022-09-09T09:14:56;6.07;;;3.10;;
16101;SDS011;56411;52.964;10.540;2022-09-09T09:17:25;8.60;;;2.92;;
16101;SDS011;56411;52.964;10.540;2022-09-09T09:19:56;7.90;;;3.00;;
16101;SDS011;56411;52.964;10.540;2022-09-09T09:22:25;10.00;;;3.00;;
16101;SDS011;56411;52.964;10.540;2022-09-09T09:25:00;8.32;;;3.05;;
16101;SDS011;56411;52.964;10.540;2022-09-09T09:27:32;7.88;;;3.20;;
16101;SDS011;56411;52.964;10.540;2022-09-09T09:30:05;9.02;;;2.90;;
16101;SDS011;56411;52.964;10.540;2022-09-09T09:32:40;8.90;;;3.35;;
16101;SDS011;56411;52.964;10.540;2022-09-09T09:35:15;6.95;;;2.63;;
16101;SDS011;56411;52.964;10.540;2022-09-09T09:37:42;5.07;;;2.50;;
16101;SDS011;56411;52.964;10.540;2022-09-09T09:40:10;7.85;;;2.65;;
16101;SDS011;56411;52.964;10.540;2022-09-09T09:42:47;7.75;;;2.60;;
16101;SDS011;56411;52.964;10.540;2022-09-09T09:45:20;5.72;;;2.50;;
16101;SDS011;56411;52.964;10.540;2022-09-09T09:48:00;5.55;;;2.50;;
16101;SDS011;56411;52.964;10.540;2022-09-09T09:50:29;6.90;;;3.00;;
16101;SDS011;56411;52.964;10.540;2022-09-09T09:52:57;7.35;;;3.10;;
16101;SDS011;56411;52.964;10.540;2022-09-09T09:55:26;7.45;;;2.92;;
16101;SDS011;56411;52.964;10.540;2022-09-09T09:58:00;6.45;;;2.65;;
16101;SDS011;56411;52.964;10.540;2022-09-09T10:00:30;6.85;;;3.10;;
16101;SDS011;56411;52.964;10.540;2022-09-09T10:02:58;7.47;;;2.80;;
16101;SDS011;56411;52.964;10.540;2022-09-09T10:05:27;8.65;;;3.60;;
16101;SDS011;56411;52.964;10.540;2022-09-09T10:08:01;6.57;;;2.70;;
16101;SDS011;56411;52.964;10.540;2022-09-09T10:10:36;7.32;;;2.40;;
16101;SDS011;56411;52.964;10.540;2022-09-09T10:13:15;7.88;;;2.55;;
16101;SDS011;56411;52.964;10.540;2022-09-09T10:15:52;5.93;;;2.40;;
16101;SDS011;56411;52.964;10.540;2022-09-09T10:21:21;8.25;;;2.70;;
16101;SDS011;56411;52.964;10.540;2022-09-09T10:24:02;7.10;;;2.30;;
16101;SDS011;56411;52.964;10.540;2022-09-09T10:26:44;6.30;;;2.35;;
16101;SDS011;56411;52.964;10.540;2022-09-09T10:29:22;7.18;;;2.70;;
16101;SDS011;56411;52.964;10.540;2022-09-09T10:32:09;8.18;;;2.33;;
16101;SDS011;56411;52.964;10.540;2022-09-09T10:34:55;7.40;;;2.50;;
16101;SDS011;56411;52.964;10.540;2022-09-09T10:37:31;5.40;;;2.08;;
16101;SDS011;56411;52.964;10.540;2022-09-09T10:40:14;3.90;;;2.22;;
16101;SDS011;56411;52.964;10.540;2022-09-09T10:42:49;5.43;;;2.20;;
16101;SDS011;56411;52.964;10.540;2022-09-09T10:45:17;6.55;;;2.45;;
16101;SDS011;56411;52.964;10.540;2022-09-09T10:47:53;6.32;;;2.20;;
16101;SDS011;56411;52.964;10.540;2022-09-09T10:50:40;6.00;;;2.17;;
16101;SDS011;56411;52.964;10.540;2022-09-09T10:53:18;5.88;;;2.53;;
16101;SDS011;56411;52.964;10.540;2022-09-09T10:55:51;7.05;;;3.00;;
16101;SDS011;56411;52.964;10.540;2022-09-09T10:58:20;4.60;;;2.20;;
16101;SDS011;56411;52.964;10.540;2022-09-09T11:00:52;7.80;;;3.15;;
16101;SDS011;56411;52.964;10.540;2022-09-09T11:03:25;6.95;;;2.10;;
16101;SDS011;56411;52.964;10.540;2022-09-09T11:05:56;8.60;;;3.85;;
16101;SDS011;56411;52.964;10.540;2022-09-09T11:08:27;7.95;;;3.70;;
16101;SDS011;56411;52.964;10.540;2022-09-09T11:10:57;5.40;;;2.00;;
16101;SDS011;56411;52.964;10.540;2022-09-09T11:13:30;6.35;;;2.17;;
16101;SDS011;56411;52.964;10.540;2022-09-09T11:16:11;8.57;;;2.10;;
16101;SDS011;56411;52.964;10.540;2022-09-09T11:18:49;5.50;;;2.40;;
16101;SDS011;56411;52.964;10.540;2022-09-09T11:21:21;4.28;;;2.17;;
16101;SDS011;56411;52.964;10.540;2022-09-09T11:23:52;5.05;;;2.17;;
16101;SDS011;56411;52.964;10.540;2022-09-09T11:26:24;6.40;;;2.60;;
16101;SDS011;56411;52.964;10.540;2022-09-09T11:29:05;5.15;;;2.42;;
16101;SDS011;56411;52.964;10.540;2022-09-09T11:31:56;5.35;;;2.50;;
16101;SDS011;56411;52.964;10.540;2022-09-09T11:34:38;6.75;;;3.45;;
16101;SDS011;56411;52.964;10.540;2022-09-09T11:37:17;8.32;;;3.00;;
16101;SDS011;56411;52.964;10.540;2022-09-09T11:40:14;7.32;;;3.28;;
16101;SDS011;56411;52.964;10.540;2022-09-09T11:42:44;7.15;;;3.10;;
16101;SDS011;56411;52.964;10.540;2022-09-09T11:45:19;6.85;;;3.33;;
16101;SDS011;56411;52.964;10.540;2022-09-09T11:47:52;8.60;;;3.75;;
16101;SDS011;56411;52.964;10.540;2022-09-09T11:50:29;7.35;;;3.50;;
16101;SDS011;56411;52.964;10.540;2022-09-09T11:53:18;6.53;;;3.67;;
16101;SDS011;56411;52.964;10.540;2022-09-09T11:55:47;6.82;;;3.60;;
16101;SDS011;56411;52.964;10.540;2022-09-09T11:58:26;8.55;;;4.13;;
16101;SDS011;56411;52.964;10.540;2022-09-09T12:00:57;8.93;;;3.70;;
16101;SDS011;56411;52.964;10.540;2022-09-09T12:03:39;9.02;;;4.25;;
16101;SDS011;56411;52.964;10.540;2022-09-09T12:06:11;7.18;;;3.65;;
16101;SDS011;56411;52.964;10.540;2022-09-09T12:08:43;8.30;;;3.72;;
16101;SDS011;56411;52.964;10.540;2022-09-09T12:11:11;7.75;;;3.67;;
16101;SDS011;56411;52.964;10.540;2022-09-09T12:13:52;8.60;;;3.97;;
16101;SDS011;56411;52.964;10.540;2022-09-09T12:16:27;9.30;;;3.90;;
16101;SDS011;56411;52.964;10.540;2022-09-09T12:19:03;8.95;;;4.03;;
16101;SDS011;56411;52.964;10.540;2022-09-09T12:21:34;9.32;;;4.40;;
16101;SDS011;56411;52.964;10.540;2022-09-09T12:24:07;8.80;;;4.30;;
16101;SDS011;56411;52.964;10.540;2022-09-09T12:26:37;9.00;;;4.55;;
16101;SDS011;56411;52.964;10.540;2022-09-09T12:29:13;8.75;;;4.47;;
16101;SDS011;56411;52.964;10.540;2022-09-09T12:31:51;9.95;;;4.63;;
16101;SDS011;56411;52.964;10.540;2022-09-09T12:34:28;10.05;;;4.60;;
16101;SDS011;56411;52.964;10.540;2022-09-09T12:37:04;9.30;;;4.82;;
16101;SDS011;56411;52.964;10.540;2022-09-09T12:39:40;11.45;;;4.95;;
16101;SDS011;56411;52.964;10.540;2022-09-09T12:42:20;10.43;;;5.30;;
16101;SDS011;56411;52.964;10.540;2022-09-09T12:44:52;7.60;;;4.40;;
16101;SDS011;56411;52.964;10.540;2022-09-09T12:47:20;9.40;;;5.05;;
16101;SDS011;56411;52.964;10.540;2022-09-09T12:49:51;8.25;;;4.40;;
16101;SDS011;56411;52.964;10.540;2022-09-09T12:52:25;9.90;;;4.55;;
16101;SDS011;56411;52.964;10.540;2022-09-09T12:54:56;10.73;;;4.15;;
16101;SDS011;56411;52.964;10.540;2022-09-09T12:57:24;8.65;;;4.28;;
16101;SDS011;56411;52.964;10.540;2022-09-09T13:00:03;8.68;;;4.10;;
16101;SDS011;56411;52.964;10.540;2022-09-09T13:02:31;10.10;;;3.72;;
16101;SDS011;56411;52.964;10.540;2022-09-09T13:05:06;9.48;;;4.45;;
16101;SDS011;56411;52.964;10.540;2022-09-09T13:07:40;8.95;;;4.93;;
16101;SDS011;56411;52.964;10.540;2022-09-09T13:10:10;9.85;;;5.30;;
16101;SDS011;56411;52.964;10.540;2022-09-09T13:12:38;8.75;;;4.38;;
16101;SDS011;56411;52.964;10.540;2022-09-09T13:15:09;10.00;;;3.83;;
16101;SDS011;56411;52.964;10.540;2022-09-09T13:17:40;9.30;;;3.60;;
16101;SDS011;56411;52.964;10.540;2022-09-09T13:20:14;8.18;;;3.80;;
16101;SDS011;56411;52.964;10.540;2022-09-09T13:22:44;9.05;;;3.85;;
16101;SDS011;56411;52.964;10.540;2022-09-09T13:25:20;9.48;;;4.00;;
16101;SDS011;56411;52.964;10.540;2022-09-09T13:28:00;8.27;;;3.30;;
16101;SDS011;56411;52.964;10.540;2022-09-09T13:30:29;6.72;;;3.40;;
16101;SDS011;56411;52.964;10.540;2022-09-09T13:33:05;8.05;;;3.50;;
16101;SDS011;56411;52.964;10.540;2022-09-09T13:35:49;6.50;;;3.10;;
16101;SDS011;56411;52.964;10.540;2022-09-09T13:38:26;6.53;;;3.13;;
16101;SDS011;56411;52.964;10.540;2022-09-09T13:40:57;8.57;;;3.60;;
16101;SDS011;56411;52.964;10.540;2022-09-09T13:43:27;6.75;;;3.58;;
16101;SDS011;56411;52.964;10.540;2022-09-09T13:45:59;5.03;;;2.50;;
16101;SDS011;56411;52.964;10.540;2022-09-09T13:48:32;8.68;;;2.78;;
16101;SDS011;56411;52.964;10.540;2022-09-09T13:51:00;6.63;;;2.40;;
16101;SDS011;56411;52.964;10.540;2022-09-09T13:53:30;11.75;;;5.88;;
16101;SDS011;56411;52.964;10.540;2022-09-09T13:55:58;9.85;;;5.00;;
16101;SDS011;56411;52.964;10.540;2022-09-09T13:58:26;7.82;;;3.80;;
16101;SDS011;56411;52.964;10.540;2022-09-09T14:00:53;11.45;;;4.82;;
16101;SDS011;56411;52.964;10.540;2022-09-09T14:03:22;9.98;;;4.80;;
16101;SDS011;56411;52.964;10.540;2022-09-09T14:05:49;8.15;;;3.40;;
16101;SDS011;56411;52.964;10.540;2022-09-09T14:08:20;7.85;;;3.17;;
16101;SDS011;56411;52.964;10.540;2022-09-09T14:10:51;11.23;;;4.70;;
16101;SDS011;56411;52.964;10.540;2022-09-09T14:13:23;15.23;;;5.80;;
16101;SDS011;56411;52.964;10.540;2022-09-09T14:15:50;10.77;;;4.80;;
16101;SDS011;56411;52.964;10.540;2022-09-09T14:18:17;8.40;;;3.65;;
16101;SDS011;56411;52.964;10.540;2022-09-09T14:20:44;6.22;;;3.08;;
16101;SDS011;56411;52.964;10.540;2022-09-09T14:23:14;5.82;;;2.63;;
16101;SDS011;56411;52.964;10.540;2022-09-09T14:25:44;6.20;;;2.67;;
16101;SDS011;56411;52.964;10.540;2022-09-09T14:28:16;6.90;;;2.80;;
16101;SDS011;56411;52.964;10.540;2022-09-09T14:30:43;7.68;;;2.90;;
16101;SDS011;56411;52.964;10.540;2022-09-09T14:33:11;10.48;;;3.05;;
16101;SDS011;56411;52.964;10.540;2022-09-09T14:35:39;8.63;;;2.63;;
16101;SDS011;56411;52.964;10.540;2022-09-09T14:38:09;5.13;;;2.40;;
16101;SDS011;56411;52.964;10.540;2022-09-09T14:40:36;6.50;;;2.78;;
16101;SDS011;56411;52.964;10.540;2022-09-09T14:43:06;5.95;;;2.70;;
16101;SDS011;56411;52.964;10.540;2022-09-09T14:45:38;7.70;;;2.78;;
16101;SDS011;56411;52.964;10.540;2022-09-09T14:48:08;6.50;;;2.40;;
16101;SDS011;56411;52.964;10.540;2022-09-09T14:50:35;6.50;;;2.97;;